EGDX

MOD St. Athan Airport

St. Athan, United Kingdom
METAR EGDX 172050Z AUTO 08016KT 9000 HZ NCD 07/05 Q1024
Observed Flight Rules
Nov-17 @ 20:50 UTC (48 minutes ago) Visual Flight Rules
Wind Visibility Clouds Conditions
80° at 16 knots 8,996 meters
  • Clear skies
  • Haze
Temperatures Readings
Current 7°C / 45°F
Dewpoint 5°C / 41°F
Humidity 87%
Altimeter 30.24" Hg
Pressure 1024 hPa
Elevation 50
METAR EGDX 172050Z AUTO 08016KT 9000 HZ NCD 07/05 Q1024
Observed Flight Rules
Nov-17 @ 20:50 UTC
(48 minutes ago)
VFR
Wind Visibility
80° at 16 knots 8,996 meters
Clouds
  • Clear skies
Conditions
  • Haze
Temperature Dewpoint
7°C / 45°F 5°C / 41°F
Humidity Altimeter Pressure
87% 30.24" Hg 1024 hPa